Gardiner, Iowa
Current Conditions -  °F | °C
As of 11:35 PM on Thursday 27 Nov 2014 (Local Time) from KPRO Reporting Station
Clear Clear  
Wind Chill: -3°   Ceiling: Unl
Heat Index: 11°   Visibility: 10mi
Dew Point:   Wind: 13mph
Humidity: 81%   Direction: 120°ESE
Pressure: 30.23"   Gusts: NA
Location:  41.8185°N, 93.9933°W
Report Text: KPRO 280535Z AUTO 12011KT 10SM CLR M11/M14 A3023 RMK AO2 T11141140
Loading
Personal Weather Stations






























Interactive Weather Map New forecast layout! Learn more

10-Day Weather Forecast

Advertisements
Track Severe Weather on mobile